Airfield :
LOGIN :

Register | Disclaimer

   EN    FR    IT 

 










Legend :    VFR   Marginal VFR   IFR   Intensive IFR   Very Intensive IFR
Visi :
Ceiling :
>= 8 km
>= 3000ft
5 to 8 km
1000 to 3000 ft
1500m to 5 km
500 to 1000 ft
800 to 1500m
200 to 500 ft
< 800m
< 200 ft
Symbols :   Thunderstorms  Fog  Heavy snow  Heavy precipitations  Wind > 20 kt
SIGMETs :     Misc.  Thunderstorms  Icing  Turbulence  Mountain Waves  Volcanic Ashes






- Airport Elevation : 499 ft
- IATA code : TLS


LFBO - Toulouse / Blagnac

CURRENT METAR :
  • 161330Z AUTO 13026KT CAVOK 15/09 Q1001 TEMPO 13025G42KT

EXPIRED METARs :
  • 161300Z AUTO 13024G35KT 9999 FEW017 16/09 Q1002 NOSIG
  • 161230Z AUTO 13023G34KT CAVOK 16/09 Q1002 NOSIG
  • 161200Z AUTO 14022G32KT CAVOK 16/09 Q1002 TEMPO 13025G42KT
  • 161130Z AUTO 13022G33KT CAVOK 15/09 Q1003 NOSIG
  • 161100Z AUTO 14025G38KT 9999 FEW013 15/09 Q1003 NOSIG

TAF TAF LFBO
Valid from the 16 at 12:00 until the 17 at 18:00 UTC


161100Z 1612/1718 14022G32KT CAVOK
TEMPO 1612/1709 13025G42KT
TEMPO 1618/1704 BKN013
BECMG 1710/1712 26012KT
TEMPO 1713/1718 BKN016
ATIS : +33 5 62 74 66 36



MET'MAP, your aeronautical weather chart ! - Copyright ORBIFLY December 2007 - Disclaimer

ORBIFLY MET'MAP TEAM :

Programming & Development : Alexandra Zaïnal
Concept & original design : Baudouin d'Aumeries
Assistance for programming : Marc-Olivier Méhu
Technical & hardware support : Manuel Goepfert

Contact : metmap@orbifly.com




SOURCES & CREDITS :

   NOAA